Time;durP1;ratioP1;P1;durP2;ratioP2;P2;SDS_P1;SDS_P2;PMS_P1;PMS_P2;Temp;Humidity;BMP_temperature;BMP_pressure;BME280_temperature;BME280_humidity;BME280_pressure;Samples;Min_cycle;Max_cycle;Signal;HPM_P1;HPM_P2
2022/01/02 00:00:40;;;;;;;40.20;14.27;;;11.50;99.90;;;;;;5088992;28;20047;-72
2022/01/02 00:03:07;;;;;;;39.95;14.02;;;11.40;99.90;;;;;;5080951;28;20074;-73
2022/01/02 00:05:37;;;;;;;46.47;15.57;;;11.40;99.90;;;;;;5088750;28;20547;-74
2022/01/02 00:08:05;;;;;;;40.90;15.13;;;11.40;99.90;;;;;;5089282;28;20479;-73
2022/01/02 00:10:39;;;;;;;45.80;14.52;;;11.50;99.90;;;;;;5085491;28;20036;-73
2022/01/02 00:13:06;;;;;;;48.58;15.27;;;11.40;99.90;;;;;;5091370;28;20040;-74
2022/01/02 00:15:32;;;;;;;37.95;14.73;;;11.40;99.90;;;;;;5109329;28;20081;-73
2022/01/02 00:18:08;;;;;;;49.53;15.05;;;11.40;99.90;;;;;;5104486;28;20040;-72
2022/01/02 00:20:36;;;;;;;42.38;15.63;;;11.40;99.90;;;;;;5078223;28;20098;-71
2022/01/02 00:23:08;;;;;;;45.03;15.18;;;11.40;99.90;;;;;;5089133;28;20043;-76
2022/01/02 00:25:38;;;;;;;45.63;14.85;;;11.40;99.90;;;;;;5070748;28;20033;-74
2022/01/02 00:28:06;;;;;;;44.95;14.68;;;11.40;99.90;;;;;;5072349;28;20032;-72
2022/01/02 00:30:32;;;;;;;40.53;14.05;;;11.40;99.90;;;;;;5077865;28;20515;-70
2022/01/02 00:33:00;;;;;;;41.83;14.20;;;11.30;99.90;;;;;;5072783;28;20426;-73
2022/01/02 00:35:26;;;;;;;45.97;14.35;;;11.30;99.90;;;;;;5072113;28;20115;-72
2022/01/02 00:37:52;;;;;;;40.28;15.23;;;11.30;99.90;;;;;;5070933;28;20144;-71
2022/01/02 00:40:17;;;;;;;39.05;14.00;;;11.30;99.90;;;;;;5088764;28;20062;-73
2022/01/02 00:42:44;;;;;;;39.00;15.02;;;11.30;99.90;;;;;;5082772;28;20442;-74
2022/01/02 00:45:21;;;;;;;38.35;14.10;;;11.30;99.90;;;;;;5071751;28;20045;-73
2022/01/02 00:48:13;;;;;;;42.75;14.25;;;11.30;99.90;;;;;;5088236;28;20045;-72
2022/01/02 00:50:46;;;;;;;44.47;15.48;;;11.30;99.90;;;;;;5086854;28;20032;-77
2022/01/02 00:53:16;;;;;;;46.03;16.00;;;11.20;99.90;;;;;;5077050;28;20040;-75
2022/01/02 00:55:43;;;;;;;45.33;14.77;;;11.30;99.90;;;;;;5077036;28;20052;-72
2022/01/02 00:58:19;;;;;;;47.13;15.48;;;11.30;99.90;;;;;;5078208;28;20039;-75
2022/01/02 01:00:49;;;;;;;49.25;15.20;;;11.30;99.90;;;;;;5071150;28;20040;-74
2022/01/02 01:03:23;;;;;;;42.08;15.45;;;11.30;99.90;;;;;;5077390;28;20510;-71
2022/01/02 01:05:53;;;;;;;46.33;15.85;;;11.30;99.90;;;;;;5083665;28;20032;-71
2022/01/02 01:08:21;;;;;;;55.42;17.02;;;11.20;99.90;;;;;;5077176;28;20041;-74
2022/01/02 01:10:48;;;;;;;54.45;16.58;;;11.30;99.90;;;;;;5076531;28;20060;-75
2022/01/02 01:13:14;;;;;;;50.83;16.63;;;11.30;99.90;;;;;;5086747;28;20122;-72
2022/01/02 01:15:41;;;;;;;52.53;17.33;;;11.30;99.90;;;;;;5080182;28;20040;-73
2022/01/02 01:18:07;;;;;;;53.75;16.95;;;11.30;99.90;;;;;;5080164;28;20095;-76
2022/01/02 01:20:41;;;;;;;50.05;17.60;;;11.20;99.90;;;;;;5087814;28;20070;-70
2022/01/02 01:23:07;;;;;;;56.42;17.90;;;11.20;99.90;;;;;;5067040;28;20086;-74
2022/01/02 01:25:35;;;;;;;54.92;18.45;;;11.30;99.90;;;;;;5077535;28;20078;-73
2022/01/02 01:28:01;;;;;;;56.75;18.10;;;11.20;99.90;;;;;;5078032;28;20032;-71
2022/01/02 01:30:28;;;;;;;53.10;17.05;;;11.30;99.90;;;;;;5102180;28;20109;-74
2022/01/02 01:32:54;;;;;;;56.45;17.70;;;11.30;99.90;;;;;;5105060;28;20044;-74
2022/01/02 01:35:21;;;;;;;67.30;17.95;;;11.30;99.90;;;;;;5084110;28;20035;-74
2022/01/02 01:37:46;;;;;;;56.40;17.23;;;11.20;99.90;;;;;;5068136;28;20305;-73
2022/01/02 01:40:13;;;;;;;56.08;18.20;;;11.20;99.90;;;;;;5106031;28;20059;-71
2022/01/02 01:42:44;;;;;;;54.97;18.08;;;11.30;99.90;;;;;;5084974;28;20127;-74
2022/01/02 01:47:51;;;;;;;50.33;17.88;;;11.30;99.90;;;;;;5079482;28;20395;-70
2022/01/02 01:50:18;;;;;;;61.17;17.88;;;11.30;99.90;;;;;;5081986;28;20033;-70
2022/01/02 01:52:44;;;;;;;50.72;17.42;;;11.30;99.90;;;;;;5083145;28;20055;-73
2022/01/02 01:55:10;;;;;;;53.10;17.50;;;11.30;99.90;;;;;;5096514;28;20044;-72
2022/01/02 01:57:38;;;;;;;55.05;17.77;;;11.30;99.90;;;;;;5083008;28;20091;-73
2022/01/02 02:00:10;;;;;;;54.17;17.50;;;11.40;99.90;;;;;;5080264;28;20036;-69
2022/01/02 02:02:35;;;;;;;57.70;16.60;;;11.40;99.90;;;;;;5059779;28;20090;-74
2022/01/02 02:05:02;;;;;;;57.83;16.95;;;11.30;99.90;;;;;;5084931;28;20032;-69
2022/01/02 02:07:37;;;;;;;52.63;17.80;;;11.30;99.90;;;;;;5079534;28;20043;-70
2022/01/02 02:10:22;;;;;;;58.20;16.75;;;11.30;99.90;;;;;;5078414;28;20076;-71
2022/01/02 02:12:49;;;;;;;57.05;17.25;;;11.40;99.90;;;;;;5079203;28;20048;-71
2022/01/02 02:15:16;;;;;;;54.22;15.85;;;11.40;99.90;;;;;;5064531;28;20047;-73
2022/01/02 02:17:47;;;;;;;55.03;16.25;;;11.40;99.90;;;;;;5059358;28;20059;-72
2022/01/02 02:20:24;;;;;;;56.63;16.05;;;11.50;99.90;;;;;;5082169;28;20036;-71
2022/01/02 02:22:55;;;;;;;51.85;16.08;;;11.50;99.90;;;;;;5101746;28;20036;-69
2022/01/02 02:25:24;;;;;;;64.13;17.10;;;11.40;99.90;;;;;;5087552;28;20032;-69
2022/01/02 02:28:02;;;;;;;54.53;15.90;;;11.40;99.90;;;;;;5075235;28;20102;-70
2022/01/02 02:30:31;;;;;;;57.85;16.65;;;11.40;99.90;;;;;;5093814;28;20040;-71
2022/01/02 02:32:58;;;;;;;52.55;15.63;;;11.40;99.90;;;;;;5087312;28;20032;-70
2022/01/02 02:35:25;;;;;;;56.42;16.63;;;11.40;99.90;;;;;;5082985;28;20118;-70
2022/01/02 02:37:51;;;;;;;57.60;15.98;;;11.40;99.90;;;;;;5073041;28;20050;-71
2022/01/02 02:40:18;;;;;;;53.90;17.27;;;11.30;99.90;;;;;;5084463;28;20052;-70
2022/01/02 02:50:48;;;;;;;66.18;17.10;;;11.20;99.90;;;;;;5091820;28;20051;-72
2022/01/02 02:53:15;;;;;;;52.53;17.38;;;11.20;99.90;;;;;;5083004;28;20124;-71
2022/01/02 02:55:47;;;;;;;55.55;17.33;;;11.30;99.90;;;;;;5083068;28;20048;-70
2022/01/02 02:58:45;;;;;;;57.80;17.13;;;11.30;99.90;;;;;;5082778;28;20040;-71
2022/01/02 03:01:04;;;;;;;53.80;15.77;;;11.30;99.90;;;;;;5079447;28;20136;-71
2022/01/02 03:03:30;;;;;;;63.50;17.45;;;11.30;99.90;;;;;;5087959;28;20599;-71
2022/01/02 03:05:56;;;;;;;55.03;16.88;;;11.20;99.90;;;;;;5082857;28;20040;-71
2022/01/02 03:08:21;;;;;;;53.85;16.40;;;11.30;99.90;;;;;;5079386;28;20042;-71
2022/01/02 03:10:47;;;;;;;51.25;16.35;;;11.20;99.90;;;;;;5080793;28;20391;-71
2022/01/02 03:13:12;;;;;;;57.03;16.35;;;11.30;99.90;;;;;;5096272;28;20458;-73
2022/01/02 03:15:38;;;;;;;54.83;16.98;;;11.20;99.90;;;;;;5090167;28;20048;-71
2022/01/02 03:18:03;;;;;;;52.63;16.08;;;11.30;99.90;;;;;;5071549;28;20043;-70
2022/01/02 03:20:29;;;;;;;57.58;15.93;;;11.20;99.90;;;;;;5076457;28;20048;-70
2022/01/02 03:22:54;;;;;;;53.20;16.10;;;11.20;99.90;;;;;;5080997;28;20049;-71
2022/01/02 03:25:20;;;;;;;45.55;15.82;;;11.20;99.90;;;;;;5078521;28;20579;-73
2022/01/02 03:27:46;;;;;;;47.15;16.20;;;11.20;99.90;;;;;;5076161;28;20036;-72
2022/01/02 03:30:13;;;;;;;45.90;14.85;;;11.30;99.90;;;;;;5090165;28;20448;-69
2022/01/02 03:32:39;;;;;;;58.03;15.30;;;11.20;99.90;;;;;;5060405;28;20394;-70
2022/01/02 03:35:06;;;;;;;46.97;15.65;;;11.30;99.90;;;;;;5075730;28;20036;-71
2022/01/02 03:37:33;;;;;;;55.35;16.02;;;11.30;99.90;;;;;;5078290;28;20055;-71
2022/01/02 03:40:04;;;;;;;56.50;15.82;;;11.30;99.90;;;;;;5070404;28;20051;-72
2022/01/02 03:42:30;;;;;;;52.17;15.60;;;11.30;99.90;;;;;;5096829;28;20040;-70
2022/01/02 03:44:59;;;;;;;59.78;15.80;;;11.30;99.90;;;;;;5079463;28;20058;-72
2022/01/02 03:47:25;;;;;;;58.50;16.27;;;11.30;99.90;;;;;;5074857;28;20032;-73
2022/01/02 03:49:51;;;;;;;48.97;14.63;;;11.30;99.90;;;;;;5081007;28;20042;-68
2022/01/02 03:52:16;;;;;;;46.55;14.30;;;11.30;99.90;;;;;;5077690;28;20123;-73
2022/01/02 03:54:42;;;;;;;46.30;14.90;;;11.30;99.90;;;;;;5080675;28;20059;-70
2022/01/02 03:57:08;;;;;;;52.08;14.65;;;11.30;99.90;;;;;;5093367;28;20044;-70
2022/01/02 03:59:34;;;;;;;55.33;14.65;;;11.30;99.90;;;;;;5065679;28;20486;-71
2022/01/02 04:01:59;;;;;;;59.05;15.52;;;11.40;99.90;;;;;;5077878;28;20391;-72
2022/01/02 04:04:25;;;;;;;48.53;14.23;;;11.30;99.90;;;;;;5101081;28;20040;-70
2022/01/02 04:06:51;;;;;;;47.03;13.80;;;11.40;99.90;;;;;;5082492;28;20145;-70
2022/01/02 04:09:16;;;;;;;51.10;14.45;;;11.30;99.90;;;;;;5086743;28;20836;-70
2022/01/02 04:11:42;;;;;;;50.50;14.60;;;11.40;99.90;;;;;;5079129;28;20044;-69
2022/01/02 04:14:07;;;;;;;50.80;14.02;;;11.40;99.90;;;;;;5080895;28;20040;-71
2022/01/02 04:16:33;;;;;;;47.45;13.70;;;11.40;99.90;;;;;;5085168;28;20051;-73
2022/01/02 04:18:58;;;;;;;52.40;13.98;;;11.40;99.90;;;;;;5088161;28;20036;-71
2022/01/02 04:21:24;;;;;;;48.78;14.32;;;11.40;99.90;;;;;;5079474;28;20487;-70
2022/01/02 04:23:49;;;;;;;51.30;13.32;;;11.50;99.90;;;;;;5093748;28;20036;-69
2022/01/02 04:26:15;;;;;;;53.35;13.95;;;11.40;99.90;;;;;;5083330;28;20374;-70
2022/01/02 04:28:41;;;;;;;48.00;13.52;;;11.50;99.90;;;;;;5095059;28;20032;-72
2022/01/02 04:31:09;;;;;;;43.40;12.35;;;11.50;99.90;;;;;;5085483;28;20043;-71
2022/01/02 04:33:35;;;;;;;51.80;13.77;;;11.50;99.90;;;;;;5100086;28;20044;-71
2022/01/02 04:36:01;;;;;;;50.17;12.85;;;11.50;99.90;;;;;;5075451;28;20121;-72
2022/01/02 04:38:27;;;;;;;44.30;12.98;;;11.50;99.90;;;;;;5076153;28;20109;-72
2022/01/02 04:40:52;;;;;;;42.85;12.65;;;11.50;99.90;;;;;;5096433;28;20471;-72
2022/01/02 04:43:18;;;;;;;38.50;12.68;;;11.50;99.90;;;;;;5083114;28;20045;-69
2022/01/02 04:45:43;;;;;;;56.15;13.65;;;11.50;99.90;;;;;;5096832;28;20560;-71
2022/01/02 04:48:09;;;;;;;51.28;13.07;;;11.60;99.90;;;;;;5077593;28;20033;-68
2022/01/02 04:50:34;;;;;;;51.50;12.88;;;11.60;99.90;;;;;;5082194;28;20072;-68
2022/01/02 04:53:00;;;;;;;47.10;12.00;;;11.60;99.90;;;;;;5094682;28;20055;-68
2022/01/02 04:55:25;;;;;;;41.42;11.43;;;11.70;99.90;;;;;;5077340;28;20126;-69
2022/01/02 04:57:51;;;;;;;51.35;11.88;;;11.70;99.90;;;;;;5096106;28;20131;-73
2022/01/02 05:00:17;;;;;;;44.72;12.40;;;11.80;99.90;;;;;;5100642;28;20040;-74
2022/01/02 05:02:42;;;;;;;39.00;11.18;;;11.90;99.90;;;;;;5088653;28;21257;-70
2022/01/02 05:05:08;;;;;;;39.42;11.32;;;11.90;99.90;;;;;;5073893;28;20082;-69
2022/01/02 05:07:33;;;;;;;42.70;11.45;;;11.90;99.90;;;;;;5088498;28;20036;-69
2022/01/02 05:10:00;;;;;;;43.88;12.23;;;11.90;99.90;;;;;;5084416;28;20480;-68
2022/01/02 05:12:26;;;;;;;33.15;11.30;;;12.00;99.90;;;;;;5071633;28;20040;-76
2022/01/02 05:14:51;;;;;;;42.58;11.05;;;12.00;99.90;;;;;;5077976;28;20082;-71
2022/01/02 05:17:17;;;;;;;45.58;10.70;;;12.10;99.90;;;;;;5080508;28;20044;-73
2022/01/02 05:19:42;;;;;;;48.42;11.63;;;12.10;99.90;;;;;;5080275;28;20052;-73
2022/01/02 05:22:08;;;;;;;40.13;10.38;;;12.00;99.90;;;;;;5091540;28;20044;-70
2022/01/02 05:24:34;;;;;;;43.30;10.18;;;12.10;99.90;;;;;;5091998;28;20075;-73
2022/01/02 05:26:59;;;;;;;43.42;10.10;;;12.10;99.90;;;;;;5080567;28;20031;-72
2022/01/02 05:29:25;;;;;;;39.78;10.15;;;12.10;99.90;;;;;;5074023;28;20047;-72
2022/01/02 05:31:51;;;;;;;37.13;9.93;;;12.10;99.90;;;;;;5060084;28;20380;-74
2022/01/02 05:34:16;;;;;;;45.53;11.00;;;12.20;99.90;;;;;;5080926;28;20047;-74
2022/01/02 05:36:48;;;;;;;38.75;10.55;;;12.20;99.90;;;;;;5079999;28;20079;-75
2022/01/02 05:39:19;;;;;;;36.17;10.13;;;12.20;99.90;;;;;;5064651;28;20033;-75
2022/01/02 05:41:45;;;;;;;34.25;9.05;;;12.30;99.90;;;;;;5077896;28;20378;-77
2022/01/02 05:44:11;;;;;;;34.20;9.45;;;12.30;99.90;;;;;;5070010;28;20121;-75
2022/01/02 05:46:37;;;;;;;39.75;9.68;;;12.30;99.90;;;;;;5077583;28;20493;-75
2022/01/02 05:49:02;;;;;;;36.60;8.25;;;12.30;99.90;;;;;;5073677;28;20119;-75
2022/01/02 05:51:28;;;;;;;31.35;8.68;;;12.40;99.90;;;;;;5089321;28;20036;-74
2022/01/02 05:53:54;;;;;;;31.30;9.20;;;12.40;99.90;;;;;;5069301;28;20486;-74
2022/01/02 05:56:19;;;;;;;33.80;8.35;;;12.40;99.90;;;;;;5082609;28;20032;-73
2022/01/02 05:58:45;;;;;;;29.90;8.18;;;12.40;99.90;;;;;;5080330;28;20042;-73
2022/01/02 06:01:10;;;;;;;31.02;8.10;;;12.40;99.90;;;;;;5086522;28;20125;-70
2022/01/02 06:03:36;;;;;;;42.50;8.82;;;12.40;99.90;;;;;;5071494;28;20387;-75
2022/01/02 06:06:02;;;;;;;34.08;8.63;;;12.30;99.90;;;;;;5078414;28;20044;-74
2022/01/02 06:08:27;;;;;;;36.22;8.05;;;12.30;99.90;;;;;;5082967;28;20032;-75
2022/01/02 06:10:53;;;;;;;31.77;7.93;;;12.30;99.90;;;;;;5074672;28;20132;-72
2022/01/02 06:13:18;;;;;;;30.48;8.65;;;12.30;99.90;;;;;;5083782;28;20143;-74
2022/01/02 06:15:44;;;;;;;31.80;7.63;;;12.30;99.90;;;;;;5071978;28;20051;-73
2022/01/02 06:18:10;;;;;;;28.30;8.00;;;12.30;99.90;;;;;;5077677;28;20040;-73
2022/01/02 06:20:35;;;;;;;32.60;8.02;;;12.30;99.90;;;;;;5084864;28;20029;-73
2022/01/02 06:23:01;;;;;;;32.72;7.78;;;12.30;99.90;;;;;;5082421;28;20364;-72
2022/01/02 06:25:26;;;;;;;35.55;7.70;;;12.30;99.90;;;;;;5085114;28;20127;-73
2022/01/02 06:27:52;;;;;;;31.00;8.85;;;12.30;99.90;;;;;;5086469;28;20040;-72
2022/01/02 06:30:18;;;;;;;34.17;8.68;;;12.30;99.90;;;;;;5081963;28;20123;-74
2022/01/02 06:32:44;;;;;;;27.90;7.95;;;12.30;99.90;;;;;;5075058;28;20118;-73
2022/01/02 06:35:10;;;;;;;32.63;7.55;;;12.30;99.90;;;;;;5075736;28;20040;-72
2022/01/02 06:37:36;;;;;;;32.72;8.45;;;12.30;99.90;;;;;;5082382;28;20387;-74
2022/01/02 06:40:02;;;;;;;29.42;7.85;;;12.30;99.90;;;;;;5078485;28;20036;-71
2022/01/02 06:42:28;;;;;;;28.67;9.68;;;12.30;99.90;;;;;;5080887;28;20046;-73
2022/01/02 06:44:53;;;;;;;30.10;8.82;;;12.30;99.90;;;;;;5086512;28;20044;-74
2022/01/02 06:47:19;;;;;;;34.67;8.57;;;12.20;99.90;;;;;;5082443;28;20469;-75
2022/01/02 06:49:44;;;;;;;34.67;8.82;;;12.20;99.90;;;;;;5083627;28;20055;-70
2022/01/02 06:52:10;;;;;;;32.40;9.32;;;12.20;99.90;;;;;;5077631;28;20131;-72
2022/01/02 06:54:37;;;;;;;30.08;9.13;;;12.10;99.90;;;;;;5064302;28;20090;-73
2022/01/02 06:57:03;;;;;;;27.17;9.38;;;12.10;99.90;;;;;;5075380;28;20082;-73
2022/01/02 06:59:30;;;;;;;39.03;9.57;;;12.10;99.90;;;;;;5079691;28;20570;-72
2022/01/02 07:01:56;;;;;;;31.27;9.77;;;12.10;99.90;;;;;;5079325;28;20044;-71
2022/01/02 07:04:21;;;;;;;27.73;9.70;;;12.10;99.90;;;;;;5079601;28;20035;-72
2022/01/02 07:06:47;;;;;;;30.13;9.23;;;12.10;99.90;;;;;;5085592;28;20036;-71
2022/01/02 07:09:13;;;;;;;34.78;10.75;;;12.00;99.90;;;;;;5068520;28;20036;-73
2022/01/02 07:11:38;;;;;;;31.17;9.73;;;11.90;99.90;;;;;;5100657;28;20028;-74
2022/01/02 07:14:04;;;;;;;33.95;10.07;;;11.90;99.90;;;;;;5080558;28;20044;-74
2022/01/02 07:16:29;;;;;;;34.47;10.48;;;11.90;99.90;;;;;;5091753;28;20094;-72
2022/01/02 07:18:55;;;;;;;31.63;9.65;;;11.90;99.90;;;;;;5098659;28;20055;-72
2022/01/02 07:21:20;;;;;;;30.55;10.27;;;11.90;99.90;;;;;;5083483;28;20198;-72
2022/01/02 07:23:46;;;;;;;33.15;9.90;;;11.90;99.90;;;;;;5095768;28;20045;-73
2022/01/02 07:26:11;;;;;;;28.73;10.02;;;11.90;99.90;;;;;;5075667;28;20040;-72
2022/01/02 07:28:37;;;;;;;35.03;10.05;;;11.80;99.90;;;;;;5076317;28;20514;-72
2022/01/02 07:31:02;;;;;;;40.13;10.93;;;11.90;99.90;;;;;;5090382;28;20043;-72
2022/01/02 07:33:28;;;;;;;33.05;10.70;;;11.80;99.90;;;;;;5097284;28;20457;-71
2022/01/02 07:35:54;;;;;;;31.08;9.73;;;11.80;99.90;;;;;;5090577;28;20036;-73
2022/01/02 07:38:19;;;;;;;27.88;9.98;;;11.90;99.90;;;;;;5082730;28;20487;-73
2022/01/02 07:40:45;;;;;;;31.50;10.88;;;11.90;99.90;;;;;;5085303;28;20048;-75
2022/01/02 07:43:10;;;;;;;35.50;11.40;;;11.90;99.90;;;;;;5100050;28;20487;-71
2022/01/02 07:45:36;;;;;;;33.83;11.27;;;11.90;99.90;;;;;;5094153;28;20039;-74
2022/01/02 07:48:01;;;;;;;35.30;12.00;;;11.80;99.90;;;;;;5096272;28;20098;-72
2022/01/02 07:50:27;;;;;;;37.13;11.20;;;11.80;99.90;;;;;;5100476;28;20479;-71
2022/01/02 07:52:52;;;;;;;36.83;11.65;;;11.80;99.90;;;;;;5077518;28;20050;-72
2022/01/02 07:55:19;;;;;;;37.72;11.23;;;11.70;99.90;;;;;;5079110;28;20028;-78
2022/01/02 07:57:45;;;;;;;36.60;11.55;;;11.80;99.90;;;;;;5064670;28;20072;-75
2022/01/02 08:00:11;;;;;;;37.97;12.00;;;11.70;99.90;;;;;;5076437;28;20120;-74
2022/01/02 08:02:36;;;;;;;36.40;11.00;;;11.70;99.90;;;;;;5077665;28;20028;-71
2022/01/02 08:05:02;;;;;;;41.10;12.15;;;11.70;99.90;;;;;;5085206;28;20048;-72
2022/01/02 08:07:28;;;;;;;34.97;12.63;;;11.70;99.90;;;;;;5090259;28;20040;-71
2022/01/02 08:09:53;;;;;;;36.15;11.18;;;11.60;99.90;;;;;;5078892;28;20038;-76
2022/01/02 08:12:19;;;;;;;30.45;11.18;;;11.60;99.90;;;;;;5074262;28;20111;-72
2022/01/02 08:14:44;;;;;;;33.33;11.20;;;11.60;99.90;;;;;;5079519;28;20522;-74
2022/01/02 08:17:10;;;;;;;31.52;11.38;;;11.60;99.90;;;;;;5102040;28;20040;-76
2022/01/02 08:19:35;;;;;;;43.28;12.50;;;11.60;99.90;;;;;;5075656;28;20041;-74
2022/01/02 08:22:01;;;;;;;30.75;11.48;;;11.70;99.90;;;;;;5088610;28;20388;-72
2022/01/02 08:24:26;;;;;;;36.78;11.05;;;11.70;99.90;;;;;;5100874;28;20451;-70
2022/01/02 08:26:52;;;;;;;38.90;12.02;;;11.60;99.90;;;;;;5083272;28;20499;-73
2022/01/02 08:29:18;;;;;;;36.35;11.88;;;11.60;99.90;;;;;;5075714;28;20036;-70
2022/01/02 08:31:44;;;;;;;33.20;11.20;;;11.60;99.90;;;;;;5089778;28;20507;-71
2022/01/02 08:34:09;;;;;;;38.70;12.18;;;11.60;99.90;;;;;;5080986;28;20047;-74
2022/01/02 08:36:35;;;;;;;36.95;12.77;;;11.50;99.90;;;;;;5096330;28;20457;-76
2022/01/02 08:39:01;;;;;;;36.78;11.18;;;11.50;99.90;;;;;;5093532;28;20127;-71
2022/01/02 08:41:26;;;;;;;33.05;11.02;;;11.40;99.90;;;;;;5075241;28;20442;-75
2022/01/02 08:43:52;;;;;;;31.08;11.25;;;11.40;99.90;;;;;;5096762;28;20078;-72
2022/01/02 08:46:17;;;;;;;38.10;10.95;;;11.40;99.90;;;;;;5090353;28;20036;-73
2022/01/02 08:48:43;;;;;;;31.30;10.93;;;11.40;99.90;;;;;;5097695;28;20036;-75
2022/01/02 08:51:11;;;;;;;34.45;11.25;;;11.40;99.90;;;;;;5075847;28;20032;-73
2022/01/02 08:53:37;;;;;;;38.88;11.95;;;11.50;99.90;;;;;;5083499;28;20048;-76
2022/01/02 08:56:03;;;;;;;35.42;11.13;;;11.50;99.90;;;;;;5081548;28;20050;-74
2022/01/02 08:58:29;;;;;;;30.58;10.88;;;11.60;99.90;;;;;;5091276;28;20036;-76
2022/01/02 09:00:57;;;;;;;35.75;11.70;;;11.60;99.90;;;;;;5078876;28;20044;-73
2022/01/02 09:03:23;;;;;;;34.13;11.07;;;11.70;99.90;;;;;;5072620;28;20040;-72
2022/01/02 09:05:48;;;;;;;27.58;10.63;;;11.80;99.90;;;;;;5084630;28;20032;-73
2022/01/02 09:08:14;;;;;;;31.52;11.52;;;11.90;99.90;;;;;;5096338;28;20043;-72
2022/01/02 09:10:40;;;;;;;29.63;11.07;;;12.00;99.90;;;;;;5081610;28;20032;-72
2022/01/02 09:13:07;;;;;;;26.92;10.77;;;12.10;99.90;;;;;;5083007;28;20075;-70
2022/01/02 09:15:33;;;;;;;26.55;11.55;;;12.10;99.90;;;;;;5084167;28;20135;-73
2022/01/02 09:18:01;;;;;;;29.65;12.32;;;12.10;99.90;;;;;;5086074;28;20122;-69
2022/01/02 09:20:27;;;;;;;35.08;12.63;;;12.10;99.90;;;;;;5079518;28;20079;-69
2022/01/02 09:22:54;;;;;;;33.90;11.27;;;12.10;99.90;;;;;;5097445;28;20072;-74
2022/01/02 09:25:19;;;;;;;36.97;12.65;;;12.20;99.90;;;;;;5074332;28;20039;-79
2022/01/02 09:27:46;;;;;;;27.83;11.30;;;12.10;99.90;;;;;;5081805;28;20486;-74
2022/01/02 09:30:12;;;;;;;32.33;11.40;;;12.10;99.90;;;;;;5105764;28;20364;-70
2022/01/02 09:32:38;;;;;;;30.52;11.55;;;12.10;99.90;;;;;;5093877;28;20036;-76
2022/01/02 09:35:05;;;;;;;33.05;12.40;;;12.10;99.90;;;;;;5093950;28;20109;-76
2022/01/02 09:37:31;;;;;;;27.33;11.00;;;12.10;99.90;;;;;;5090933;28;20040;-73
2022/01/02 09:39:56;;;;;;;31.75;12.85;;;12.10;99.90;;;;;;5093113;28;20096;-74
2022/01/02 09:42:22;;;;;;;32.83;13.40;;;12.10;99.90;;;;;;5098993;28;20444;-74
2022/01/02 09:44:47;;;;;;;34.00;13.65;;;12.10;99.90;;;;;;5077641;28;20514;-71
2022/01/02 09:47:18;;;;;;;35.95;14.43;;;12.10;99.90;;;;;;5098686;28;20043;-72
2022/01/02 09:49:46;;;;;;;34.35;14.30;;;12.10;99.90;;;;;;5113020;28;20371;-73
2022/01/02 09:52:12;;;;;;;33.63;14.30;;;12.10;99.90;;;;;;5097228;28;20044;-74
2022/01/02 09:54:38;;;;;;;38.10;14.38;;;12.00;99.90;;;;;;5091040;28;20137;-70
2022/01/02 09:57:04;;;;;;;30.00;13.70;;;12.10;99.90;;;;;;5093074;28;20040;-72
2022/01/02 09:59:29;;;;;;;38.05;13.90;;;12.10;99.90;;;;;;5082032;28;20048;-71
2022/01/02 10:01:55;;;;;;;43.63;15.35;;;12.10;99.90;;;;;;5085258;28;20055;-75
2022/01/02 10:04:39;;;;;;;42.83;15.63;;;12.10;99.90;;;;;;5086221;28;20073;-75
2022/01/02 10:07:06;;;;;;;35.88;14.95;;;12.20;99.90;;;;;;5086349;28;20035;-72
2022/01/02 10:09:37;;;;;;;33.10;14.48;;;12.20;99.90;;;;;;5098117;28;20115;-75
2022/01/02 10:12:20;;;;;;;31.60;15.10;;;12.20;99.90;;;;;;5095724;28;20032;-73
2022/01/02 10:15:07;;;;;;;34.63;15.80;;;12.20;99.90;;;;;;5094562;28;20044;-71
2022/01/02 10:17:58;;;;;;;33.75;14.85;;;12.20;99.90;;;;;;5087072;28;20468;-73
2022/01/02 10:20:34;;;;;;;37.10;14.67;;;12.20;99.90;;;;;;5083186;28;20122;-69
2022/01/02 10:23:21;;;;;;;31.27;14.00;;;12.20;99.90;;;;;;5088533;28;20036;-72
2022/01/02 10:25:57;;;;;;;35.90;14.63;;;12.20;99.90;;;;;;5095343;28;20060;-74
2022/01/02 10:28:37;;;;;;;28.20;13.93;;;12.30;99.90;;;;;;5090810;28;20063;-71
2022/01/02 10:31:15;;;;;;;34.78;14.90;;;12.30;99.90;;;;;;5089433;28;20051;-72
2022/01/02 10:33:59;;;;;;;38.83;14.77;;;12.20;99.90;;;;;;5091459;28;20044;-73
2022/01/02 10:36:30;;;;;;;34.97;15.57;;;12.20;99.90;;;;;;5091392;28;20212;-71
2022/01/02 10:39:09;;;;;;;35.53;14.65;;;12.20;99.90;;;;;;5082974;28;20093;-72
2022/01/02 10:41:42;;;;;;;36.88;15.00;;;12.20;99.90;;;;;;5104563;28;20052;-72
2022/01/02 10:44:29;;;;;;;33.78;14.77;;;12.20;99.90;;;;;;5091546;28;20130;-71
2022/01/02 10:47:18;;;;;;;36.33;15.07;;;12.20;99.90;;;;;;5106686;28;20109;-71
2022/01/02 10:50:04;;;;;;;39.45;16.33;;;12.20;99.90;;;;;;5088590;28;20055;-76
2022/01/02 10:52:38;;;;;;;33.25;15.23;;;12.20;99.90;;;;;;5092224;28;20448;-74
2022/01/02 10:55:14;;;;;;;34.97;15.98;;;12.20;99.90;;;;;;5093534;28;20067;-72
2022/01/02 10:57:46;;;;;;;37.97;16.30;;;12.20;99.90;;;;;;5095682;28;20062;-71
2022/01/02 11:00:12;;;;;;;39.22;16.73;;;12.20;99.90;;;;;;5091230;28;20048;-73
2022/01/02 11:02:39;;;;;;;40.58;17.70;;;12.10;99.90;;;;;;5072589;28;20035;-73
2022/01/02 11:05:13;;;;;;;42.35;16.15;;;12.10;99.90;;;;;;5079664;28;20135;-73
2022/01/02 11:07:58;;;;;;;36.97;17.40;;;12.10;99.90;;;;;;5088457;28;20134;-72
2022/01/02 11:10:24;;;;;;;43.72;17.95;;;12.10;99.90;;;;;;5089973;28;20032;-73
2022/01/02 11:12:52;;;;;;;40.15;17.60;;;12.00;99.90;;;;;;5083685;28;20510;-69
2022/01/02 11:15:20;;;;;;;42.38;17.50;;;12.00;99.90;;;;;;5088679;28;20036;-73
2022/01/02 11:17:46;;;;;;;35.65;17.25;;;12.00;99.90;;;;;;5093521;28;20035;-73
2022/01/02 11:20:24;;;;;;;38.85;18.17;;;12.10;99.90;;;;;;5093437;28;20040;-70
2022/01/02 11:22:59;;;;;;;46.40;19.00;;;12.00;99.90;;;;;;5080394;28;20032;-72
2022/01/02 11:25:58;;;;;;;42.88;18.88;;;12.00;99.90;;;;;;5089743;28;20135;-74
2022/01/02 11:28:40;;;;;;;41.28;19.00;;;12.00;99.90;;;;;;5100724;28;20089;-71
2022/01/02 11:31:09;;;;;;;43.13;19.00;;;12.00;99.90;;;;;;5089599;28;20040;-70
2022/01/02 11:33:39;;;;;;;42.22;19.13;;;12.00;99.90;;;;;;5085733;28;20286;-72
2022/01/02 11:36:34;;;;;;;43.13;19.30;;;12.00;99.90;;;;;;5092604;28;20085;-72
2022/01/02 11:39:06;;;;;;;34.75;17.40;;;12.00;99.90;;;;;;5089275;28;20032;-71
2022/01/02 11:41:35;;;;;;;37.75;18.50;;;12.10;99.90;;;;;;5083014;28;20051;-71
2022/01/02 11:44:00;;;;;;;40.20;17.00;;;12.10;99.90;;;;;;5086087;28;20044;-72
2022/01/02 11:46:31;;;;;;;37.10;16.00;;;12.10;99.90;;;;;;5095260;28;20198;-71
2022/01/02 11:49:13;;;;;;;41.40;15.88;;;12.20;99.90;;;;;;5075476;28;20089;-69
2022/01/02 11:51:48;;;;;;;34.58;14.98;;;12.10;99.90;;;;;;5087170;28;20482;-73
2022/01/02 11:56:58;;;;;;;41.10;14.07;;;12.10;99.90;;;;;;5089310;28;20143;-70
2022/01/02 11:59:39;;;;;;;39.47;13.93;;;12.20;99.90;;;;;;5088654;28;20036;-74
2022/01/02 12:02:27;;;;;;;40.55;13.38;;;12.20;99.90;;;;;;5096783;28;20040;-74
2022/01/02 12:04:59;;;;;;;35.55;13.13;;;12.20;99.90;;;;;;5081526;28;20131;-70
2022/01/02 12:07:34;;;;;;;30.75;12.10;;;12.20;99.90;;;;;;5083789;28;20024;-71
2022/01/02 12:10:17;;;;;;;45.42;12.27;;;12.20;99.90;;;;;;5096740;28;20462;-69
2022/01/02 12:13:20;;;;;;;28.50;10.77;;;12.20;99.90;;;;;;5090951;28;20087;-66
2022/01/02 12:15:45;;;;;;;34.70;8.15;;;12.20;99.90;;;;;;5072505;28;20054;-71
2022/01/02 12:18:20;;;;;;;34.33;9.18;;;12.30;99.90;;;;;;5088882;28;20036;-71
2022/01/02 12:20:56;;;;;;;36.25;8.88;;;12.30;99.90;;;;;;5089200;28;20151;-71
2022/01/02 12:23:34;;;;;;;31.23;8.40;;;12.30;99.90;;;;;;5071641;28;20587;-71
2022/01/02 12:26:04;;;;;;;34.95;8.48;;;12.30;99.90;;;;;;5095541;28;20039;-70
2022/01/02 12:28:46;;;;;;;30.38;7.32;;;12.40;99.90;;;;;;5089000;28;20047;-73
2022/01/02 12:31:14;;;;;;;33.28;6.45;;;12.40;99.90;;;;;;5089045;28;20382;-73
2022/01/02 12:33:40;;;;;;;42.33;7.07;;;12.40;99.90;;;;;;5093776;28;20039;-72
2022/01/02 12:36:08;;;;;;;31.75;7.05;;;12.50;99.90;;;;;;5082825;28;20123;-70
2022/01/02 12:38:56;;;;;;;29.00;6.22;;;12.50;99.90;;;;;;5097803;27;20055;-72
2022/01/02 12:41:31;;;;;;;37.28;7.53;;;12.40;99.90;;;;;;5087678;28;20081;-73
2022/01/02 12:44:07;;;;;;;40.00;7.72;;;12.30;99.90;;;;;;5096551;28;20051;-71
2022/01/02 12:46:53;;;;;;;35.03;7.65;;;12.40;99.90;;;;;;5086849;28;20111;-72
2022/01/02 12:49:21;;;;;;;33.95;7.35;;;12.40;99.90;;;;;;5103208;28;20032;-70